createdAt,value
2018-08-22T00:00:40.686Z,45.07
2018-08-22T00:03:09.299Z,45.26
2018-08-22T00:05:37.794Z,45.32
2018-08-22T00:08:06.630Z,45.40
2018-08-22T00:10:35.159Z,45.11
2018-08-22T00:13:03.727Z,45.30
2018-08-22T00:15:32.288Z,45.39
2018-08-22T00:18:00.867Z,45.56
2018-08-22T00:20:29.702Z,45.48
2018-08-22T00:22:58.504Z,45.67
2018-08-22T00:25:27.909Z,46.18
2018-08-22T00:27:56.558Z,45.61
2018-08-22T00:30:25.591Z,45.50
2018-08-22T00:32:54.380Z,46.28
2018-08-22T00:35:23.102Z,45.65
2018-08-22T00:37:52.130Z,46.40
2018-08-22T00:40:21.022Z,46.11
2018-08-22T00:42:49.774Z,46.44
2018-08-22T00:45:18.533Z,46.00
2018-08-22T00:47:47.415Z,46.11
2018-08-22T00:50:16.413Z,46.53
2018-08-22T00:52:46.603Z,47.13
2018-08-22T00:55:15.264Z,47.08
2018-08-22T00:57:43.898Z,47.33
2018-08-22T01:00:12.690Z,46.91
2018-08-22T01:02:41.579Z,47.48
2018-08-22T01:05:10.122Z,47.88
2018-08-22T01:07:38.860Z,46.82
2018-08-22T01:10:08.663Z,46.94
2018-08-22T01:12:37.995Z,48.03
2018-08-22T01:15:07.031Z,47.12
2018-08-22T01:17:35.719Z,47.09
2018-08-22T01:20:04.678Z,47.20
2018-08-22T01:22:33.299Z,47.74
2018-08-22T01:25:02.130Z,47.98
2018-08-22T01:27:31.123Z,47.76
2018-08-22T01:29:59.784Z,47.82
2018-08-22T01:32:28.338Z,48.17
2018-08-22T01:34:56.942Z,48.34
2018-08-22T01:37:25.455Z,47.43
2018-08-22T01:39:54.056Z,47.58
2018-08-22T01:42:23.441Z,48.48
2018-08-22T01:44:52.038Z,48.54
2018-08-22T01:47:20.594Z,48.16
2018-08-22T01:49:49.144Z,48.66
2018-08-22T01:52:17.760Z,49.00
2018-08-22T01:54:46.338Z,48.62
2018-08-22T01:57:14.954Z,49.29
2018-08-22T01:59:43.476Z,49.18
2018-08-22T02:02:12.033Z,49.11
2018-08-22T02:04:40.602Z,49.06
2018-08-22T02:07:09.124Z,48.78
2018-08-22T02:09:37.800Z,48.63
2018-08-22T02:12:06.338Z,49.69
2018-08-22T02:14:34.972Z,49.32
2018-08-22T02:17:03.530Z,49.22
2018-08-22T02:19:32.152Z,49.50
2018-08-22T02:22:00.693Z,49.39
2018-08-22T02:24:29.338Z,49.63
2018-08-22T02:26:57.966Z,49.37
2018-08-22T02:29:26.528Z,49.08
2018-08-22T02:31:55.078Z,48.81
2018-08-22T02:34:23.806Z,49.58
2018-08-22T02:36:52.687Z,49.65
2018-08-22T02:39:38.392Z,49.45
2018-08-22T02:42:18.312Z,49.53
2018-08-22T02:47:45.603Z,49.04
2018-08-22T02:50:14.182Z,49.69
2018-08-22T02:52:42.807Z,49.09
2018-08-22T02:55:11.380Z,49.55
2018-08-22T02:57:40.036Z,49.55
2018-08-22T03:00:08.731Z,49.67
2018-08-22T03:02:37.362Z,49.36
2018-08-22T03:05:05.969Z,49.29
2018-08-22T03:07:34.664Z,49.50
2018-08-22T03:10:03.365Z,50.13
2018-08-22T03:12:32.002Z,50.21
2018-08-22T03:15:00.637Z,50.27
2018-08-22T03:17:29.221Z,50.14
2018-08-22T03:19:57.786Z,50.56
2018-08-22T03:22:26.345Z,50.59
2018-08-22T03:24:54.929Z,50.21
2018-08-22T03:27:23.448Z,50.04
2018-08-22T03:29:52.817Z,51.08
2018-08-22T03:32:21.465Z,50.49
2018-08-22T03:34:50.169Z,51.05
2018-08-22T03:37:19.107Z,50.65
2018-08-22T03:39:47.798Z,51.47
2018-08-22T03:42:16.376Z,51.41
2018-08-22T03:44:44.997Z,51.22
2018-08-22T03:47:13.549Z,50.92
2018-08-22T03:49:42.104Z,51.14
2018-08-22T03:52:10.627Z,51.64
2018-08-22T03:54:39.213Z,51.63
2018-08-22T03:57:07.840Z,51.64
2018-08-22T03:59:36.469Z,51.45
2018-08-22T04:02:05.152Z,51.99
2018-08-22T04:04:33.740Z,51.99
2018-08-22T04:07:02.425Z,51.29
2018-08-22T04:09:30.999Z,51.54
2018-08-22T04:11:59.553Z,51.57
2018-08-22T04:14:28.252Z,51.93
2018-08-22T04:16:56.884Z,51.67
2018-08-22T04:19:25.519Z,52.24
2018-08-22T04:21:54.771Z,51.78
2018-08-22T04:24:23.343Z,51.71
2018-08-22T04:26:52.036Z,52.79
2018-08-22T04:29:21.736Z,52.00
2018-08-22T04:31:57.043Z,52.39
2018-08-22T04:34:27.723Z,52.91
2018-08-22T04:36:58.593Z,52.71
2018-08-22T04:42:26.615Z,52.79
2018-08-22T04:44:57.728Z,52.26
2018-08-22T04:47:27.420Z,52.92
2018-08-22T04:49:56.038Z,52.61
2018-08-22T04:52:24.635Z,52.82
2018-08-22T04:54:53.340Z,52.22
2018-08-22T04:57:21.940Z,52.74
2018-08-22T04:59:50.536Z,52.40
2018-08-22T05:02:19.117Z,53.22
2018-08-22T05:04:47.778Z,52.52
2018-08-22T05:07:16.556Z,52.54
2018-08-22T05:09:45.147Z,53.33
2018-08-22T05:12:13.817Z,53.20
2018-08-22T05:14:42.395Z,52.73
2018-08-22T05:17:11.011Z,52.66
2018-08-22T05:19:39.755Z,52.70
2018-08-22T05:22:08.351Z,52.06
2018-08-22T05:24:36.931Z,52.27
2018-08-22T05:27:05.579Z,52.98
2018-08-22T05:29:34.792Z,52.59
2018-08-22T05:32:03.393Z,52.37
2018-08-22T05:34:32.185Z,52.64
2018-08-22T05:37:00.934Z,52.79
2018-08-22T05:39:29.595Z,51.99
2018-08-22T05:41:58.240Z,52.10
2018-08-22T05:44:26.998Z,52.31
2018-08-22T05:46:55.837Z,51.25
2018-08-22T05:49:24.479Z,51.07
2018-08-22T05:51:56.600Z,51.64
2018-08-22T05:54:26.081Z,51.23
2018-08-22T05:56:54.641Z,51.45
2018-08-22T05:59:23.190Z,50.94
2018-08-22T06:01:51.740Z,50.29
2018-08-22T06:04:20.257Z,50.78
2018-08-22T06:06:48.770Z,49.84
2018-08-22T06:09:17.306Z,49.35
2018-08-22T06:11:45.837Z,49.50
2018-08-22T06:14:14.344Z,49.47
2018-08-22T06:16:43.157Z,49.00
2018-08-22T06:19:11.688Z,48.97
2018-08-22T06:21:40.305Z,48.36
2018-08-22T06:24:09.050Z,47.23
2018-08-22T06:26:37.774Z,47.75
2018-08-22T06:29:06.344Z,45.64
2018-08-22T06:31:35.035Z,44.76
2018-08-22T06:34:03.706Z,44.44
2018-08-22T06:36:32.324Z,44.31
2018-08-22T06:39:00.905Z,42.98
2018-08-22T06:41:29.504Z,42.10
2018-08-22T06:43:58.173Z,40.22
2018-08-22T06:46:26.729Z,39.75
2018-08-22T06:48:55.409Z,38.98
2018-08-22T06:51:23.968Z,38.38
2018-08-22T06:53:52.594Z,37.22
2018-08-22T06:56:21.260Z,36.27
2018-08-22T06:58:49.816Z,35.84
2018-08-22T07:01:18.400Z,35.23
2018-08-22T07:03:46.989Z,34.52
2018-08-22T07:06:15.564Z,33.36
2018-08-22T07:08:44.169Z,33.53
2018-08-22T07:11:12.810Z,31.68
2018-08-22T07:13:41.532Z,31.40
2018-08-22T07:16:10.278Z,31.09
2018-08-22T07:18:38.877Z,30.30
2018-08-22T07:21:07.571Z,28.43
2018-08-22T07:23:36.265Z,28.01
2018-08-22T07:26:04.962Z,27.87
2018-08-22T07:28:33.684Z,27.35
2018-08-22T07:31:02.267Z,25.40
2018-08-22T07:33:30.858Z,25.51
2018-08-22T07:36:00.318Z,24.49
2018-08-22T07:38:28.950Z,23.18
2018-08-22T07:40:57.750Z,23.18
2018-08-22T07:43:26.375Z,23.20
2018-08-22T07:45:54.962Z,22.84
2018-08-22T07:48:23.708Z,22.98
2018-08-22T07:50:52.472Z,22.34
2018-08-22T07:53:21.223Z,22.64
2018-08-22T07:55:49.783Z,21.97
2018-08-22T07:58:18.736Z,22.28
2018-08-22T08:00:47.408Z,21.23
2018-08-22T08:03:16.057Z,20.98
2018-08-22T08:05:44.787Z,20.82
2018-08-22T08:08:13.539Z,20.49
2018-08-22T08:10:42.422Z,20.64
2018-08-22T08:13:16.585Z,20.91
2018-08-22T08:15:45.199Z,20.70
2018-08-22T08:18:13.888Z,20.89
2018-08-22T08:20:42.632Z,19.34
2018-08-22T08:23:11.216Z,19.24
2018-08-22T08:25:39.901Z,19.31
2018-08-22T08:28:16.302Z,18.90
2018-08-22T08:30:45.030Z,18.84
2018-08-22T08:33:13.669Z,18.70
2018-08-22T08:35:42.228Z,18.70
2018-08-22T08:38:12.529Z,19.19
2018-08-22T08:40:41.335Z,18.60
2018-08-22T08:43:10.950Z,18.73
2018-08-22T08:45:39.894Z,18.28
2018-08-22T08:48:08.888Z,17.82
2018-08-22T08:50:38.533Z,18.06
2018-08-22T08:53:07.165Z,18.10
2018-08-22T08:55:36.117Z,17.31
2018-08-22T08:58:05.247Z,17.49
2018-08-22T09:00:33.854Z,16.86
2018-08-22T09:03:04.756Z,16.30
2018-08-22T09:05:33.566Z,15.86
2018-08-22T09:08:03.424Z,16.14
2018-08-22T09:10:32.035Z,15.44
2018-08-22T09:13:00.697Z,14.83
2018-08-22T09:15:29.323Z,15.01
2018-08-22T09:17:58.070Z,14.71
2018-08-22T09:20:26.811Z,13.76
2018-08-22T09:22:55.600Z,13.07
2018-08-22T09:25:24.380Z,12.87
2018-08-22T09:27:53.226Z,12.78
2018-08-22T09:30:21.904Z,13.21
2018-08-22T09:32:50.616Z,13.07
2018-08-22T09:35:19.276Z,12.98
2018-08-22T09:37:48.026Z,12.46
2018-08-22T09:40:18.723Z,12.90
2018-08-22T09:42:47.606Z,12.73
2018-08-22T09:45:16.298Z,12.63
2018-08-22T09:47:44.902Z,11.99
2018-08-22T09:50:13.608Z,11.95
2018-08-22T09:52:42.263Z,12.63
2018-08-22T09:55:10.936Z,13.33
2018-08-22T09:57:39.755Z,13.07
2018-08-22T10:00:12.565Z,13.03
2018-08-22T10:02:41.300Z,13.29
2018-08-22T10:05:09.922Z,12.74
2018-08-22T10:07:38.509Z,11.90
2018-08-22T10:10:07.254Z,12.10
2018-08-22T10:12:35.895Z,11.83
2018-08-22T10:15:04.717Z,11.62
2018-08-22T10:17:33.349Z,11.63
2018-08-22T10:20:02.044Z,12.12
2018-08-22T10:22:37.650Z,11.50
2018-08-22T10:25:10.419Z,10.64
2018-08-22T10:27:39.310Z,10.50
2018-08-22T10:30:08.274Z,10.29
2018-08-22T10:32:37.075Z,9.96
2018-08-22T10:35:06.276Z,9.65
2018-08-22T10:37:34.898Z,9.39
2018-08-22T10:40:03.467Z,9.58
2018-08-22T10:42:32.095Z,8.72
2018-08-22T10:45:00.760Z,8.72
2018-08-22T10:47:29.413Z,9.09
2018-08-22T10:49:58.204Z,8.50
2018-08-22T10:52:26.860Z,8.12
2018-08-22T10:54:55.634Z,7.94
2018-08-22T10:57:24.380Z,8.57
2018-08-22T10:59:53.158Z,7.08
2018-08-22T11:02:22.842Z,7.58
2018-08-22T11:04:51.605Z,7.71
2018-08-22T11:07:20.266Z,7.80
2018-08-22T11:09:49.036Z,7.58
2018-08-22T11:12:17.685Z,7.77
2018-08-22T11:14:46.420Z,7.04
2018-08-22T11:17:15.079Z,6.66
2018-08-22T11:19:43.722Z,7.01
2018-08-22T11:22:23.445Z,6.61
2018-08-22T11:25:03.663Z,6.48
2018-08-22T11:27:44.605Z,7.13
2018-08-22T11:30:24.705Z,6.47
2018-08-22T11:33:04.455Z,6.64
2018-08-22T11:35:31.855Z,7.21
2018-08-22T11:38:00.515Z,6.96
2018-08-22T11:40:29.206Z,6.70
2018-08-22T11:42:58.829Z,7.35
2018-08-22T11:45:28.414Z,7.36
2018-08-22T11:47:56.953Z,7.57
2018-08-22T11:50:25.608Z,8.56
2018-08-22T11:52:54.357Z,9.39
2018-08-22T11:55:23.099Z,10.46
2018-08-22T11:57:51.730Z,11.06
2018-08-22T12:00:20.371Z,12.55
2018-08-22T12:02:49.096Z,13.32
2018-08-22T12:05:17.883Z,14.31
2018-08-22T12:07:46.633Z,14.62
2018-08-22T12:10:15.349Z,15.07
2018-08-22T12:12:44.362Z,15.62
2018-08-22T12:15:13.105Z,16.54
2018-08-22T12:17:41.917Z,17.32
2018-08-22T12:20:10.795Z,17.41
2018-08-22T12:22:39.444Z,17.75
2018-08-22T12:25:08.134Z,17.76
2018-08-22T12:27:36.896Z,18.45
2018-08-22T12:30:05.763Z,18.50
2018-08-22T12:32:34.486Z,18.95
2018-08-22T12:35:03.234Z,18.69
2018-08-22T12:37:31.893Z,18.86
2018-08-22T12:40:00.559Z,19.60
2018-08-22T12:42:29.231Z,19.51
2018-08-22T12:44:57.837Z,19.42
2018-08-22T12:47:27.725Z,19.39
2018-08-22T12:49:56.532Z,20.23
2018-08-22T12:52:25.227Z,19.68
2018-08-22T12:54:54.042Z,19.65
2018-08-22T12:57:22.762Z,20.91
2018-08-22T12:59:51.389Z,21.00
2018-08-22T13:02:20.063Z,21.46
2018-08-22T13:04:48.714Z,21.15
2018-08-22T13:07:17.352Z,21.58
2018-08-22T13:09:45.937Z,21.56
2018-08-22T13:12:14.551Z,21.46
2018-08-22T13:14:43.285Z,21.42
2018-08-22T13:17:11.841Z,21.67
2018-08-22T13:19:40.422Z,21.90
2018-08-22T13:22:09.013Z,22.04
2018-08-22T13:24:37.689Z,21.73
2018-08-22T13:27:06.101Z,21.23
2018-08-22T13:29:34.666Z,21.26
2018-08-22T13:32:03.458Z,21.84
2018-08-22T13:34:32.221Z,21.97
2018-08-22T13:37:00.867Z,21.85
2018-08-22T13:39:29.673Z,22.05
2018-08-22T13:41:58.478Z,22.20
2018-08-22T13:44:27.326Z,22.55
2018-08-22T13:46:55.930Z,22.41
2018-08-22T13:49:24.498Z,22.40
2018-08-22T13:51:53.118Z,21.89
2018-08-22T13:54:22.048Z,22.68
2018-08-22T13:56:50.914Z,22.72
2018-08-22T13:59:20.617Z,22.60
2018-08-22T14:01:49.283Z,22.93
2018-08-22T14:04:17.890Z,22.18
2018-08-22T14:06:46.880Z,22.32
2018-08-22T14:09:15.563Z,22.36
2018-08-22T14:11:44.438Z,22.12
2018-08-22T14:14:13.122Z,21.95
2018-08-22T14:16:41.791Z,22.10
2018-08-22T14:19:10.439Z,22.88
2018-08-22T14:21:39.087Z,23.23
2018-08-22T14:24:07.705Z,23.12
2018-08-22T14:26:36.270Z,23.74
2018-08-22T14:29:04.906Z,23.21
2018-08-22T14:31:33.614Z,23.80
2018-08-22T14:34:02.199Z,24.08
2018-08-22T14:36:30.869Z,24.10
2018-08-22T14:38:59.522Z,24.22
2018-08-22T14:41:28.156Z,23.99
2018-08-22T14:43:56.761Z,23.66
2018-08-22T14:46:25.444Z,24.01
2018-08-22T14:48:55.122Z,24.17
2018-08-22T14:51:23.977Z,24.01
2018-08-22T14:53:52.702Z,24.24
2018-08-22T14:56:21.581Z,24.69
2018-08-22T14:58:50.293Z,24.61
2018-08-22T15:01:19.461Z,24.49
2018-08-22T15:03:48.438Z,24.61
2018-08-22T15:06:17.652Z,24.14
2018-08-22T15:08:46.439Z,24.50
2018-08-22T15:11:15.197Z,24.52
2018-08-22T15:13:43.904Z,23.93
2018-08-22T15:16:12.900Z,24.13
2018-08-22T15:18:41.677Z,24.40
2018-08-22T15:21:10.466Z,24.82
2018-08-22T15:23:39.236Z,25.07
2018-08-22T15:26:07.926Z,25.13
2018-08-22T15:28:36.516Z,24.92
2018-08-22T15:31:05.305Z,24.23
2018-08-22T15:33:34.001Z,24.99
2018-08-22T15:36:02.777Z,24.54
2018-08-22T15:38:31.575Z,24.79
2018-08-22T15:41:00.380Z,25.42
2018-08-22T15:43:29.003Z,25.57
2018-08-22T15:45:58.251Z,25.22
2018-08-22T15:48:27.033Z,25.36
2018-08-22T15:50:56.157Z,26.02
2018-08-22T15:53:25.153Z,25.85
2018-08-22T15:55:54.008Z,26.29
2018-08-22T15:58:22.933Z,25.88
2018-08-22T16:00:53.026Z,26.21
2018-08-22T16:03:22.657Z,26.62
2018-08-22T16:05:52.551Z,25.90
2018-08-22T16:08:23.433Z,25.99
2018-08-22T16:10:52.366Z,26.73
2018-08-22T16:13:26.287Z,26.39
2018-08-22T16:15:56.285Z,27.46
2018-08-22T16:18:25.072Z,26.83
2018-08-22T16:21:06.553Z,26.41
2018-08-22T16:23:36.492Z,26.75
2018-08-22T16:26:06.364Z,27.25
2018-08-22T16:28:49.019Z,26.52
2018-08-22T16:31:18.378Z,26.77
2018-08-22T16:33:47.333Z,27.51
2018-08-22T16:36:31.756Z,27.69
2018-08-22T16:39:01.913Z,27.49
2018-08-22T16:41:30.559Z,27.59
2018-08-22T16:43:59.301Z,27.85
2018-08-22T16:46:28.065Z,27.60
2018-08-22T16:48:56.742Z,27.75
2018-08-22T16:51:26.051Z,28.54
2018-08-22T16:54:01.450Z,27.98
2018-08-22T16:56:31.304Z,28.51
2018-08-22T16:59:11.204Z,28.85
2018-08-22T17:01:42.462Z,28.56
2018-08-22T17:04:11.070Z,29.53
2018-08-22T17:06:39.818Z,28.74
2018-08-22T17:09:10.049Z,29.36
2018-08-22T17:11:38.929Z,29.45
2018-08-22T17:14:07.674Z,29.77
2018-08-22T17:16:36.594Z,30.54
2018-08-22T17:19:05.354Z,30.03
2018-08-22T17:21:34.031Z,30.81
2018-08-22T17:24:02.716Z,30.30
2018-08-22T17:26:31.549Z,30.77
2018-08-22T17:29:01.307Z,30.52
2018-08-22T17:31:31.576Z,30.73
2018-08-22T17:34:03.098Z,30.70
2018-08-22T17:36:31.771Z,31.48
2018-08-22T17:39:02.464Z,31.72
2018-08-22T17:41:31.195Z,31.39
2018-08-22T17:44:08.211Z,32.24
2018-08-22T17:46:39.431Z,32.76
2018-08-22T17:49:08.122Z,32.89
2018-08-22T17:51:44.490Z,32.75
2018-08-22T17:54:13.350Z,32.29
2018-08-22T17:56:42.048Z,32.52
2018-08-22T17:59:10.920Z,33.10
2018-08-22T18:01:39.786Z,33.49
2018-08-22T18:04:08.470Z,33.36
2018-08-22T18:06:37.139Z,34.20
2018-08-22T18:09:06.322Z,33.75
2018-08-22T18:11:35.065Z,33.89
2018-08-22T18:14:03.709Z,34.24
2018-08-22T18:16:32.531Z,34.22
2018-08-22T18:19:01.396Z,34.38
2018-08-22T18:21:34.151Z,34.34
2018-08-22T18:24:02.901Z,34.60
2018-08-22T18:26:32.046Z,35.00
2018-08-22T18:29:00.741Z,34.75
2018-08-22T18:31:29.483Z,35.25
2018-08-22T18:34:02.610Z,35.52
2018-08-22T18:36:32.461Z,35.60
2018-08-22T18:39:02.806Z,35.69
2018-08-22T18:41:31.496Z,35.90
2018-08-22T18:44:00.386Z,36.31
2018-08-22T18:46:29.104Z,36.05
2018-08-22T18:49:01.931Z,36.30
2018-08-22T18:54:21.284Z,36.73
2018-08-22T18:56:49.997Z,36.72
2018-08-22T18:59:26.405Z,36.83
2018-08-22T19:01:57.408Z,37.21
2018-08-22T19:04:26.549Z,37.29
2018-08-22T19:06:55.267Z,37.50
2018-08-22T19:09:23.917Z,37.27
2018-08-22T19:11:52.661Z,37.18
2018-08-22T19:14:57.312Z,38.20
2018-08-22T19:17:26.075Z,37.35
2018-08-22T19:19:54.846Z,37.45
2018-08-22T19:22:23.534Z,37.83
2018-08-22T19:25:07.691Z,37.98
2018-08-22T19:27:36.391Z,38.92
2018-08-22T19:30:06.915Z,38.19
2018-08-22T19:32:36.015Z,38.91
2018-08-22T19:35:04.716Z,39.13
2018-08-22T19:37:33.482Z,39.36
2018-08-22T19:40:09.090Z,39.26
2018-08-22T19:42:40.544Z,39.54
2018-08-22T19:45:10.193Z,38.72
2018-08-22T19:47:39.805Z,40.05
2018-08-22T19:50:09.380Z,39.31
2018-08-22T19:52:38.125Z,39.97
2018-08-22T19:55:07.989Z,40.52
2018-08-22T19:57:40.033Z,39.45
2018-08-22T20:00:12.959Z,39.91
2018-08-22T20:02:41.871Z,41.07
2018-08-22T20:05:14.220Z,40.39
2018-08-22T20:07:46.059Z,40.76
2018-08-22T20:10:14.865Z,40.36
2018-08-22T20:12:54.586Z,41.10
2018-08-22T20:15:23.516Z,40.44
2018-08-22T20:17:55.787Z,41.69
2018-08-22T20:20:25.099Z,41.04
2018-08-22T20:22:56.007Z,41.76
2018-08-22T20:25:24.705Z,41.47
2018-08-22T20:27:53.342Z,41.57
2018-08-22T20:30:23.159Z,42.51
2018-08-22T20:32:58.959Z,42.93
2018-08-22T20:35:33.846Z,42.79
2018-08-22T20:38:03.815Z,42.36
2018-08-22T20:40:32.577Z,42.17
2018-08-22T20:43:01.250Z,42.42
2018-08-22T20:45:35.977Z,43.33
2018-08-22T20:48:07.647Z,43.45
2018-08-22T20:50:37.687Z,42.87
2018-08-22T20:53:07.882Z,43.30
2018-08-22T20:55:38.891Z,43.03
2018-08-22T20:58:17.502Z,43.80
2018-08-22T21:00:46.202Z,43.54
2018-08-22T21:03:15.856Z,43.58
2018-08-22T21:05:44.495Z,43.38
2018-08-22T21:08:13.089Z,43.89
2018-08-22T21:10:41.737Z,43.59
2018-08-22T21:13:15.467Z,44.65
2018-08-22T21:15:45.219Z,43.95
2018-08-22T21:18:13.800Z,44.88
2018-08-22T21:20:42.481Z,44.15
2018-08-22T21:23:11.158Z,43.92
2018-08-22T21:25:39.706Z,44.14
2018-08-22T21:28:08.286Z,45.10
2018-08-22T21:30:39.452Z,44.43
2018-08-22T21:33:08.092Z,44.51
2018-08-22T21:35:36.724Z,45.18
2018-08-22T21:38:09.445Z,45.49
2018-08-22T21:40:38.062Z,45.57
2018-08-22T21:43:06.668Z,45.47
2018-08-22T21:45:35.234Z,45.09
2018-08-22T21:48:15.897Z,46.01
2018-08-22T21:50:45.367Z,45.71
2018-08-22T21:53:14.045Z,46.26
2018-08-22T21:55:43.770Z,45.59
2018-08-22T21:58:12.817Z,45.68
2018-08-22T22:00:41.398Z,46.66
2018-08-22T22:03:11.446Z,46.29
2018-08-22T22:05:47.882Z,46.23
2018-08-22T22:08:16.547Z,46.20
2018-08-22T22:10:45.136Z,47.35
2018-08-22T22:13:13.889Z,47.33
2018-08-22T22:15:46.619Z,46.73
2018-08-22T22:18:15.332Z,47.60
2018-08-22T22:20:48.201Z,47.04
2018-08-22T22:23:16.869Z,48.04
2018-08-22T22:25:45.530Z,47.99
2018-08-22T22:28:14.232Z,48.26
2018-08-22T22:30:42.854Z,47.58
2018-08-22T22:33:11.488Z,48.37
2018-08-22T22:35:41.678Z,48.57
2018-08-22T22:38:11.309Z,48.83
2018-08-22T22:40:40.468Z,48.92
2018-08-22T22:43:10.422Z,48.19
2018-08-22T22:45:39.004Z,48.80
2018-08-22T22:48:07.681Z,48.76
2018-08-22T22:50:36.461Z,49.38
2018-08-22T22:53:06.597Z,48.66
2018-08-22T22:55:35.183Z,48.85
2018-08-22T22:58:03.986Z,49.16
2018-08-22T23:00:32.665Z,49.03
2018-08-22T23:03:07.720Z,49.06
2018-08-22T23:05:36.367Z,49.82
2018-08-22T23:08:04.943Z,49.24
2018-08-22T23:10:33.539Z,49.36
2018-08-22T23:13:02.222Z,49.46
2018-08-22T23:15:31.628Z,49.54
2018-08-22T23:18:04.795Z,49.65
2018-08-22T23:20:39.300Z,50.52
2018-08-22T23:23:24.311Z,50.33
2018-08-22T23:25:53.036Z,50.53
2018-08-22T23:28:21.612Z,50.88
2018-08-22T23:30:50.231Z,50.88
2018-08-22T23:33:18.856Z,51.05
2018-08-22T23:35:47.496Z,50.89
2018-08-22T23:38:21.342Z,51.01
2018-08-22T23:40:49.926Z,50.93
2018-08-22T23:43:18.597Z,51.10
2018-08-22T23:46:01.432Z,50.17
2018-08-22T23:48:33.976Z,50.31
2018-08-22T23:51:07.810Z,51.08
2018-08-22T23:53:52.899Z,50.97
2018-08-22T23:56:24.385Z,51.21
2018-08-22T23:58:54.080Z,51.43
